Cse Prosperity Expr. — 3EES5 — position and weather

sailwx.info

Track history (hours):
 
Tides and Currents Weather Stations Pressure Air Temp Water Temp Dewpoint Dewpoint Depression Visibility Wind Speed Wind Dir Waves Ship Positions

Cse Prosperity Expr.

Last reported at 2017-Sep-21 07:51 UTC. Time now 2017-Sep-21 14:05 UTC.
Position N 22°36' E 120°18'.

Length 168 m; draft 9.5 m.

Type: Cargo ship. MMSI: 371801000.

Date/timePositionNaut miles runAvg speedWind from/ knotsBaromVisibWave heightAir tempDewpointWater temp
2017-Sep-21 07:51N 22°36' E 120°18'0 0.0
2017-Sep-21 07:27N 22°36' E 120°18'0 0.0
2017-Sep-21 07:00N 22°36' E 120°18'0 0.0
2017-Sep-21 02:48N 22°36' E 120°18'0 0.0
2017-Sep-21 02:18N 22°36' E 120°18'0 0.0
2017-Sep-21 02:00N 22°36' E 120°18'0 0.0
2017-Sep-21 01:27N 22°36' E 120°18'0 0.0
2017-Sep-21 01:00N 22°36' E 120°18'0 0.0
2017-Sep-21 00:27N 22°36' E 120°18'0 0.2
2017-Sep-21 00:00N 22°36' E 120°18'2 4.7
2017-Sep-20 23:30N 22°37' E 120°15'3 7.1
2017-Sep-20 23:00N 22°37' E 120°12'4 7.1
2017-Sep-20 22:30N 22°34' E 120°09'2 4.4
2017-Sep-20 21:57N 22°33' E 120°07'0 0.5
2017-Sep-20 21:30N 22°33' E 120°07'0 0.5
2017-Sep-20 21:00N 22°33' E 120°07'0 0.7
2017-Sep-20 20:27N 22°34' E 120°07'0 0.8
2017-Sep-20 19:57N 22°34' E 120°07'0 0.9
2017-Sep-20 19:27N 22°34' E 120°07'0 0.8
2017-Sep-20 18:57N 22°35' E 120°06'0 0.7
2017-Sep-20 18:27N 22°35' E 120°06'0 0.5
2017-Sep-20 18:00N 22°35' E 120°06'0 0.3
2017-Sep-20 17:30N 22°35' E 120°06'0 0.1
2017-Sep-20 17:00N 22°35' E 120°06'0 0.2
2017-Sep-20 16:21N 22°35' E 120°06'0 0.2
2017-Sep-20 15:57N 22°35' E 120°06'0 0.1
2017-Sep-20 15:30N 22°35' E 120°06'1 1.4
2017-Sep-20 15:00N 22°35' E 120°07'1110.5
2017-Sep-20 14:00N 22°25' E 120°12'  
2017-Sep-16 00:00N 33°54' E 134°59'713.6
2017-Sep-15 23:31N 34°00' E 135°00'713.4
2017-Sep-15 23:01N 34°07' E 135°02'611.9
2017-Sep-15 22:30N 34°13' E 135°03'4 7.1
2017-Sep-15 22:00N 34°14' E 135°07'0 0.3
2017-Sep-15 21:29N 34°14' E 135°07'0 0.0
2017-Sep-15 20:59N 34°14' E 135°07'0 0.0
2017-Sep-15 20:29N 34°14' E 135°07'0 0.0
2017-Sep-15 19:59N 34°14' E 135°07'0 0.0
2017-Sep-15 19:29N 34°14' E 135°07'0 0.0
2017-Sep-15 18:59N 34°14' E 135°07'0 0.0
2017-Sep-15 18:29N 34°14' E 135°07'0 0.0
2017-Sep-15 17:59N 34°14' E 135°07'0 0.0
2017-Sep-15 17:29N 34°14' E 135°07'0 0.0
2017-Sep-15 16:59N 34°14' E 135°07'0 0.0
2017-Sep-15 16:29N 34°14' E 135°07'0 0.0
2017-Sep-15 15:59N 34°14' E 135°07'0 0.0
2017-Sep-15 15:26N 34°14' E 135°07'0 0.0
2017-Sep-15 14:56N 34°14' E 135°07'0 0.0
2017-Sep-15 14:26N 34°14' E 135°07'0 0.0
2017-Sep-15 13:56N 34°14' E 135°07'0 0.0
2017-Sep-15 13:29N 34°14' E 135°07'0 0.0
2017-Sep-15 12:59N 34°14' E 135°07'0 0.0
2017-Sep-15 12:29N 34°14' E 135°07'0 0.0
2017-Sep-15 11:59N 34°14' E 135°07'0 0.0
2017-Sep-15 11:29N 34°14' E 135°07'0 0.0
2017-Sep-15 10:59N 34°14' E 135°07'0 0.0
2017-Sep-15 10:29N 34°14' E 135°07'0 0.0
2017-Sep-15 09:59N 34°14' E 135°07'0 0.0
2017-Sep-15 09:29N 34°14' E 135°07'0 0.0
2017-Sep-15 08:59N 34°14' E 135°07'0 0.0
2017-Sep-15 08:29N 34°14' E 135°07'0 0.0
2017-Sep-15 07:59N 34°14' E 135°07'0 0.0
2017-Sep-15 07:29N 34°14' E 135°07'0 0.0
2017-Sep-15 06:59N 34°14' E 135°07'0 0.0
2017-Sep-15 06:26N 34°14' E 135°07'0 0.0
2017-Sep-15 05:59N 34°14' E 135°07'0 0.0
2017-Sep-15 05:29N 34°14' E 135°07'0 0.0
2017-Sep-15 04:56N 34°14' E 135°07'0 0.0
2017-Sep-15 04:26N 34°14' E 135°07'0 0.0
2017-Sep-15 03:59N 34°14' E 135°07'0 0.0
2017-Sep-15 03:29N 34°14' E 135°07'0 0.0
2017-Sep-15 02:59N 34°14' E 135°07'0 0.0
2017-Sep-15 02:29N 34°14' E 135°07'0 0.0
2017-Sep-15 01:59N 34°14' E 135°07'0 0.0
2017-Sep-15 01:29N 34°14' E 135°07'0 0.0
2017-Sep-15 00:59N 34°14' E 135°07'0 0.0
2017-Sep-15 00:26N 34°14' E 135°07'0 0.0
2017-Sep-14 23:59N 34°14' E 135°07'0 0.0
2017-Sep-14 23:29N 34°14' E 135°07'0 0.0
2017-Sep-14 22:59N 34°14' E 135°07'0 0.0
2017-Sep-14 22:26N 34°14' E 135°07'0 0.0
2017-Sep-14 21:59N 34°14' E 135°07'0 0.0
2017-Sep-14 21:29N 34°14' E 135°07'0 0.0
2017-Sep-14 20:59N 34°14' E 135°07'0 0.0
2017-Sep-14 20:29N 34°14' E 135°07'0 0.0
2017-Sep-14 19:59N 34°14' E 135°07'0 0.0
2017-Sep-14 19:29N 34°14' E 135°07'0 0.0
2017-Sep-14 18:59N 34°14' E 135°07'0 0.0
2017-Sep-14 18:29N 34°14' E 135°07'0 0.0
2017-Sep-14 17:59N 34°14' E 135°07'0 0.0
2017-Sep-14 17:23N 34°14' E 135°07'0 0.0
2017-Sep-14 16:59N 34°14' E 135°07'0 0.0
2017-Sep-14 16:26N 34°14' E 135°07'0 0.0
2017-Sep-14 15:59N 34°14' E 135°07'0 0.0
2017-Sep-14 15:29N 34°14' E 135°07'0 0.0
2017-Sep-14 14:59N 34°14' E 135°07'0 0.0
2017-Sep-14 14:29N 34°14' E 135°07'0 0.0
2017-Sep-14 13:59N 34°14' E 135°07'0 0.0
2017-Sep-14 13:29N 34°14' E 135°07'0 0.0
2017-Sep-14 12:59N 34°14' E 135°07'0 0.0
2017-Sep-14 12:29N 34°14' E 135°07'0 0.0
2017-Sep-14 11:59N 34°14' E 135°07'0 0.0
2017-Sep-14 11:29N 34°14' E 135°07'0 0.0
2017-Sep-14 10:59N 34°14' E 135°07'0 0.0
2017-Sep-14 10:29N 34°14' E 135°07'0 0.0
2017-Sep-14 09:59N 34°14' E 135°07'0 0.0
2017-Sep-14 09:29N 34°14' E 135°07'0 0.0
2017-Sep-14 08:59N 34°14' E 135°07'0 0.0
2017-Sep-14 08:29N 34°14' E 135°07'0 0.0
2017-Sep-14 07:59N 34°14' E 135°07'0 0.0
2017-Sep-14 07:29N 34°14' E 135°07'0 0.0
2017-Sep-14 06:59N 34°14' E 135°07'0 0.0
2017-Sep-14 06:29N 34°14' E 135°07'0 0.0
2017-Sep-14 05:59N 34°14' E 135°07'0 0.0
2017-Sep-14 05:29N 34°14' E 135°07'0 0.0
2017-Sep-14 04:59N 34°14' E 135°07'0 0.0
2017-Sep-14 04:29N 34°14' E 135°07'0 0.0
2017-Sep-14 03:59N 34°14' E 135°07'0 0.0
2017-Sep-14 03:23N 34°14' E 135°07'0 0.0
2017-Sep-14 02:59N 34°14' E 135°07'0 0.0
2017-Sep-14 02:29N 34°14' E 135°07'0 0.0
2017-Sep-14 01:59N 34°14' E 135°07'0 0.0
2017-Sep-14 01:29N 34°14' E 135°07'0 0.0
2017-Sep-14 00:59N 34°14' E 135°07'0 0.0
2017-Sep-14 00:29N 34°14' E 135°07'0 0.0
2017-Sep-13 23:59N 34°14' E 135°07'0 0.0
2017-Sep-13 23:29N 34°14' E 135°07'0 0.0
2017-Sep-13 22:56N 34°14' E 135°07'0 0.0
2017-Sep-13 22:29N 34°14' E 135°07'0 0.0
2017-Sep-13 21:59N 34°14' E 135°07'0 0.0
2017-Sep-13 21:29N 34°14' E 135°07'0 0.0
2017-Sep-13 20:59N 34°14' E 135°07'0 0.0
2017-Sep-13 20:29N 34°14' E 135°07'0 0.0
2017-Sep-13 19:59N 34°14' E 135°07'0 0.0
2017-Sep-13 19:29N 34°14' E 135°07'0 0.0
2017-Sep-13 18:53N 34°14' E 135°07'0 0.0
2017-Sep-13 18:29N 34°14' E 135°07'0 0.0
2017-Sep-13 17:56N 34°14' E 135°07'0 0.0
2017-Sep-13 17:29N 34°14' E 135°07'0 0.0
2017-Sep-13 16:59N 34°14' E 135°07'0 0.0
2017-Sep-13 16:29N 34°14' E 135°07'0 0.0
2017-Sep-13 15:59N 34°14' E 135°07'0 0.0
2017-Sep-13 15:29N 34°14' E 135°07'0 0.0
2017-Sep-13 14:59N 34°14' E 135°07'0 0.0
2017-Sep-13 14:29N 34°14' E 135°07'0 0.0
2017-Sep-13 13:59N 34°14' E 135°07'0 0.0
2017-Sep-13 13:29N 34°14' E 135°07'0 0.0
2017-Sep-13 12:59N 34°14' E 135°07'0 0.0
2017-Sep-13 12:29N 34°14' E 135°07'0 0.0
2017-Sep-13 11:59N 34°14' E 135°07'0 0.0
2017-Sep-13 11:29N 34°14' E 135°07'0 0.0
2017-Sep-13 10:59N 34°14' E 135°07'0 0.0
2017-Sep-13 10:29N 34°14' E 135°07'0 0.0
2017-Sep-13 09:59N 34°14' E 135°07'0 0.0
2017-Sep-13 09:29N 34°14' E 135°07'0 0.0
2017-Sep-13 08:56N 34°14' E 135°07'0 0.0
2017-Sep-13 08:29N 34°14' E 135°07'0 0.0
2017-Sep-13 07:59N 34°14' E 135°07'0 0.0
2017-Sep-13 07:29N 34°14' E 135°07'0 0.0
2017-Sep-13 06:56N 34°14' E 135°07'0 0.0
2017-Sep-13 06:29N 34°14' E 135°07'0 0.0
2017-Sep-13 05:59N 34°14' E 135°07'0 0.0
2017-Sep-13 05:23N 34°14' E 135°07'0 0.0
2017-Sep-13 04:59N 34°14' E 135°07'0 0.0
2017-Sep-13 04:26N 34°14' E 135°07'0 0.0
2017-Sep-13 03:56N 34°14' E 135°07'0 0.0
2017-Sep-13 03:29N 34°14' E 135°07'0 0.0
2017-Sep-13 02:59N 34°14' E 135°07'0 0.0
2017-Sep-13 02:26N 34°14' E 135°07'0 0.0
2017-Sep-13 01:53N 34°14' E 135°07'0 0.0
2017-Sep-13 01:29N 34°14' E 135°07'0 0.0
2017-Sep-13 00:59N 34°14' E 135°07'0 0.0
2017-Sep-13 00:29N 34°14' E 135°07'0 0.0
2017-Sep-12 23:53N 34°14' E 135°07'0 0.0
2017-Sep-12 23:29N 34°14' E 135°07'0 0.0
2017-Sep-12 22:59N 34°14' E 135°07'0 0.0
2017-Sep-12 22:29N 34°14' E 135°07'0 0.0
2017-Sep-12 21:59N 34°14' E 135°07'0 0.0
2017-Sep-12 21:29N 34°14' E 135°07'0 0.0
2017-Sep-12 20:59N 34°14' E 135°07'0 0.0
2017-Sep-12 20:29N 34°14' E 135°07'0 0.0
2017-Sep-12 19:59N 34°14' E 135°07'0 0.0
2017-Sep-12 19:29N 34°14' E 135°07'0 0.0
2017-Sep-12 18:59N 34°14' E 135°07'0 0.0
2017-Sep-12 18:29N 34°14' E 135°07'0 0.0
2017-Sep-12 17:56N 34°14' E 135°07'0 0.0
2017-Sep-12 17:11N 34°14' E 135°07'0 0.0
2017-Sep-12 16:59N 34°14' E 135°07'0 0.0
2017-Sep-12 16:29N 34°14' E 135°07'0 0.0
2017-Sep-12 15:59N 34°14' E 135°07'0 0.0
2017-Sep-12 15:29N 34°14' E 135°07'0 0.0
2017-Sep-12 14:56N 34°14' E 135°07'0 0.0
2017-Sep-12 14:20N 34°14' E 135°07'0 0.0
2017-Sep-12 13:59N 34°14' E 135°07'0 0.0
2017-Sep-12 13:29N 34°14' E 135°07'0 0.0
2017-Sep-12 12:59N 34°14' E 135°07'0 0.0
2017-Sep-12 12:29N 34°14' E 135°07'0 0.0
2017-Sep-12 11:59N 34°14' E 135°07'0 0.0
2017-Sep-12 11:26N 34°14' E 135°07'0 0.0
2017-Sep-12 10:59N 34°14' E 135°07'0 0.0
2017-Sep-12 10:29N 34°14' E 135°07'0 0.0
2017-Sep-12 09:59N 34°14' E 135°07'0 0.0
2017-Sep-12 09:29N 34°14' E 135°07'0 0.0
2017-Sep-12 08:59N 34°14' E 135°07'0 0.0
2017-Sep-12 08:29N 34°14' E 135°07'0 0.0
2017-Sep-12 07:59N 34°14' E 135°07'0 0.0
2017-Sep-12 07:29N 34°14' E 135°07'0 0.0
2017-Sep-12 06:59N 34°14' E 135°07'0 0.0
2017-Sep-12 06:29N 34°14' E 135°07'0 0.0
2017-Sep-12 05:59N 34°14' E 135°07'0 0.0
2017-Sep-12 05:29N 34°14' E 135°07'0 0.0
2017-Sep-12 04:59N 34°14' E 135°07'0 0.0
2017-Sep-12 04:23N 34°14' E 135°07'0 0.0
2017-Sep-12 03:59N 34°14' E 135°07'0 0.0
2017-Sep-12 03:29N 34°14' E 135°07'0 0.0
2017-Sep-12 02:59N 34°14' E 135°07'0 0.0
2017-Sep-12 02:29N 34°14' E 135°07'0 0.0
2017-Sep-12 01:53N 34°14' E 135°07'0 0.0
2017-Sep-12 01:26N 34°14' E 135°07'0 0.0
2017-Sep-12 00:59N 34°14' E 135°07'0 0.0
2017-Sep-12 00:29N 34°14' E 135°07'0 0.0
2017-Sep-11 23:53N 34°14' E 135°07'0 0.0
2017-Sep-11 23:29N 34°14' E 135°07'0 0.0
2017-Sep-11 22:59N 34°14' E 135°07'0 0.0
2017-Sep-11 22:29N 34°14' E 135°07'0 0.0
2017-Sep-11 21:59N 34°14' E 135°07'0 0.0
2017-Sep-11 21:29N 34°14' E 135°07'0 0.0
2017-Sep-11 20:59N 34°14' E 135°07'0 0.0
2017-Sep-11 20:29N 34°14' E 135°07'0 0.0
2017-Sep-11 19:59N 34°14' E 135°07'0 0.0
2017-Sep-11 19:29N 34°14' E 135°07'0 0.0
2017-Sep-11 18:59N 34°14' E 135°07'0 0.0
2017-Sep-11 18:29N 34°14' E 135°07'0 0.0
2017-Sep-11 17:59N 34°14' E 135°07'0 0.0
2017-Sep-11 17:23N 34°14' E 135°07'0 0.0
2017-Sep-11 16:41N 34°14' E 135°07'0 0.0
2017-Sep-11 16:29N 34°14' E 135°07'0 0.0
2017-Sep-11 15:59N 34°14' E 135°07'0 0.0
2017-Sep-11 15:29N 34°14' E 135°07'0 0.0
2017-Sep-11 14:59N 34°14' E 135°07'0 0.0
2017-Sep-11 14:29N 34°14' E 135°07'0 0.0
2017-Sep-11 13:53N 34°14' E 135°07'0 0.0
2017-Sep-11 13:23N 34°14' E 135°07'0 0.0
2017-Sep-11 12:59N 34°14' E 135°07'0 0.0
2017-Sep-11 12:29N 34°14' E 135°07'0 0.0
2017-Sep-11 11:59N 34°14' E 135°07'0 0.0
2017-Sep-11 11:23N 34°14' E 135°07'0 0.0
2017-Sep-11 10:59N 34°14' E 135°07'0 0.0
2017-Sep-11 10:29N 34°14' E 135°07'0 0.0
2017-Sep-11 09:53N 34°14' E 135°07'0 0.0
2017-Sep-11 09:29N 34°14' E 135°07'0 0.0
2017-Sep-11 08:59N 34°14' E 135°07'0 0.0
2017-Sep-11 08:29N 34°14' E 135°07'0 0.0
2017-Sep-11 07:59N 34°14' E 135°07'  
Track history (hours):
 
Tides and Currents Weather Stations Pressure Air Temp Water Temp Dewpoint Dewpoint Depression Visibility Wind Speed Wind Dir Waves Ship Positions

Cse Prosperity Expr.

Last reported at 2017-Sep-21 07:51 UTC. Time now 2017-Sep-21 14:05 UTC.
Position N 22°36' E 120°18'.

Length 168 m; draft 9.5 m.

Type: Cargo ship. MMSI: 371801000.

Date/timePositionNaut miles runAvg speedWind from/ knotsBaromVisibWave heightAir tempDewpointWater temp
2017-Sep-21 07:51N 22°36' E 120°18'0 0.0
2017-Sep-21 07:27N 22°36' E 120°18'0 0.0
2017-Sep-21 07:00N 22°36' E 120°18'0 0.0
2017-Sep-21 02:48N 22°36' E 120°18'0 0.0
2017-Sep-21 02:18N 22°36' E 120°18'0 0.0
2017-Sep-21 02:00N 22°36' E 120°18'0 0.0
2017-Sep-21 01:27N 22°36' E 120°18'0 0.0
2017-Sep-21 01:00N 22°36' E 120°18'0 0.0
2017-Sep-21 00:27N 22°36' E 120°18'0 0.2
2017-Sep-21 00:00N 22°36' E 120°18'2 4.7
2017-Sep-20 23:30N 22°37' E 120°15'3 7.1
2017-Sep-20 23:00N 22°37' E 120°12'4 7.1
2017-Sep-20 22:30N 22°34' E 120°09'2 4.4
2017-Sep-20 21:57N 22°33' E 120°07'0 0.5
2017-Sep-20 21:30N 22°33' E 120°07'0 0.5
2017-Sep-20 21:00N 22°33' E 120°07'0 0.7
2017-Sep-20 20:27N 22°34' E 120°07'0 0.8
2017-Sep-20 19:57N 22°34' E 120°07'0 0.9
2017-Sep-20 19:27N 22°34' E 120°07'0 0.8
2017-Sep-20 18:57N 22°35' E 120°06'0 0.7
2017-Sep-20 18:27N 22°35' E 120°06'0 0.5
2017-Sep-20 18:00N 22°35' E 120°06'0 0.3
2017-Sep-20 17:30N 22°35' E 120°06'0 0.1
2017-Sep-20 17:00N 22°35' E 120°06'0 0.2
2017-Sep-20 16:21N 22°35' E 120°06'0 0.2
2017-Sep-20 15:57N 22°35' E 120°06'0 0.1
2017-Sep-20 15:30N 22°35' E 120°06'1 1.4
2017-Sep-20 15:00N 22°35' E 120°07'1110.5
2017-Sep-20 14:00N 22°25' E 120°12'  
2017-Sep-16 00:00N 33°54' E 134°59'713.6
2017-Sep-15 23:31N 34°00' E 135°00'713.4
2017-Sep-15 23:01N 34°07' E 135°02'611.9
2017-Sep-15 22:30N 34°13' E 135°03'4 7.1
2017-Sep-15 22:00N 34°14' E 135°07'0 0.3
2017-Sep-15 21:29N 34°14' E 135°07'0 0.0
2017-Sep-15 20:59N 34°14' E 135°07'0 0.0
2017-Sep-15 20:29N 34°14' E 135°07'0 0.0
2017-Sep-15 19:59N 34°14' E 135°07'0 0.0
2017-Sep-15 19:29N 34°14' E 135°07'0 0.0
2017-Sep-15 18:59N 34°14' E 135°07'0 0.0
2017-Sep-15 18:29N 34°14' E 135°07'0 0.0
2017-Sep-15 17:59N 34°14' E 135°07'0 0.0
2017-Sep-15 17:29N 34°14' E 135°07'0 0.0
2017-Sep-15 16:59N 34°14' E 135°07'0 0.0
2017-Sep-15 16:29N 34°14' E 135°07'0 0.0
2017-Sep-15 15:59N 34°14' E 135°07'0 0.0
2017-Sep-15 15:26N 34°14' E 135°07'0 0.0
2017-Sep-15 14:56N 34°14' E 135°07'0 0.0
2017-Sep-15 14:26N 34°14' E 135°07'0 0.0
2017-Sep-15 13:56N 34°14' E 135°07'0 0.0
2017-Sep-15 13:29N 34°14' E 135°07'0 0.0
2017-Sep-15 12:59N 34°14' E 135°07'0 0.0
2017-Sep-15 12:29N 34°14' E 135°07'0 0.0
2017-Sep-15 11:59N 34°14' E 135°07'0 0.0
2017-Sep-15 11:29N 34°14' E 135°07'0 0.0
2017-Sep-15 10:59N 34°14' E 135°07'0 0.0
2017-Sep-15 10:29N 34°14' E 135°07'0 0.0
2017-Sep-15 09:59N 34°14' E 135°07'0 0.0
2017-Sep-15 09:29N 34°14' E 135°07'0 0.0
2017-Sep-15 08:59N 34°14' E 135°07'0 0.0
2017-Sep-15 08:29N 34°14' E 135°07'0 0.0
2017-Sep-15 07:59N 34°14' E 135°07'0 0.0
2017-Sep-15 07:29N 34°14' E 135°07'0 0.0
2017-Sep-15 06:59N 34°14' E 135°07'0 0.0
2017-Sep-15 06:26N 34°14' E 135°07'0 0.0
2017-Sep-15 05:59N 34°14' E 135°07'0 0.0
2017-Sep-15 05:29N 34°14' E 135°07'0 0.0
2017-Sep-15 04:56N 34°14' E 135°07'0 0.0
2017-Sep-15 04:26N 34°14' E 135°07'0 0.0
2017-Sep-15 03:59N 34°14' E 135°07'0 0.0
2017-Sep-15 03:29N 34°14' E 135°07'0 0.0
2017-Sep-15 02:59N 34°14' E 135°07'0 0.0
2017-Sep-15 02:29N 34°14' E 135°07'0 0.0
2017-Sep-15 01:59N 34°14' E 135°07'0 0.0
2017-Sep-15 01:29N 34°14' E 135°07'0 0.0
2017-Sep-15 00:59N 34°14' E 135°07'0 0.0
2017-Sep-15 00:26N 34°14' E 135°07'0 0.0
2017-Sep-14 23:59N 34°14' E 135°07'0 0.0
2017-Sep-14 23:29N 34°14' E 135°07'0 0.0
2017-Sep-14 22:59N 34°14' E 135°07'0 0.0
2017-Sep-14 22:26N 34°14' E 135°07'0 0.0
2017-Sep-14 21:59N 34°14' E 135°07'0 0.0
2017-Sep-14 21:29N 34°14' E 135°07'0 0.0
2017-Sep-14 20:59N 34°14' E 135°07'0 0.0
2017-Sep-14 20:29N 34°14' E 135°07'0 0.0
2017-Sep-14 19:59N 34°14' E 135°07'0 0.0
2017-Sep-14 19:29N 34°14' E 135°07'0 0.0
2017-Sep-14 18:59N 34°14' E 135°07'0 0.0
2017-Sep-14 18:29N 34°14' E 135°07'0 0.0
2017-Sep-14 17:59N 34°14' E 135°07'0 0.0
2017-Sep-14 17:23N 34°14' E 135°07'0 0.0
2017-Sep-14 16:59N 34°14' E 135°07'0 0.0
2017-Sep-14 16:26N 34°14' E 135°07'0 0.0
2017-Sep-14 15:59N 34°14' E 135°07'0 0.0
2017-Sep-14 15:29N 34°14' E 135°07'0 0.0
2017-Sep-14 14:59N 34°14' E 135°07'0 0.0
2017-Sep-14 14:29N 34°14' E 135°07'0 0.0
2017-Sep-14 13:59N 34°14' E 135°07'0 0.0
2017-Sep-14 13:29N 34°14' E 135°07'0 0.0
2017-Sep-14 12:59N 34°14' E 135°07'0 0.0
2017-Sep-14 12:29N 34°14' E 135°07'0 0.0
2017-Sep-14 11:59N 34°14' E 135°07'0 0.0
2017-Sep-14 11:29N 34°14' E 135°07'0 0.0
2017-Sep-14 10:59N 34°14' E 135°07'0 0.0
2017-Sep-14 10:29N 34°14' E 135°07'0 0.0
2017-Sep-14 09:59N 34°14' E 135°07'0 0.0
2017-Sep-14 09:29N 34°14' E 135°07'0 0.0
2017-Sep-14 08:59N 34°14' E 135°07'0 0.0
2017-Sep-14 08:29N 34°14' E 135°07'0 0.0
2017-Sep-14 07:59N 34°14' E 135°07'0 0.0
2017-Sep-14 07:29N 34°14' E 135°07'0 0.0
2017-Sep-14 06:59N 34°14' E 135°07'0 0.0
2017-Sep-14 06:29N 34°14' E 135°07'0 0.0
2017-Sep-14 05:59N 34°14' E 135°07'0 0.0
2017-Sep-14 05:29N 34°14' E 135°07'0 0.0
2017-Sep-14 04:59N 34°14' E 135°07'0 0.0
2017-Sep-14 04:29N 34°14' E 135°07'0 0.0
2017-Sep-14 03:59N 34°14' E 135°07'0 0.0
2017-Sep-14 03:23N 34°14' E 135°07'0 0.0
2017-Sep-14 02:59N 34°14' E 135°07'0 0.0
2017-Sep-14 02:29N 34°14' E 135°07'0 0.0
2017-Sep-14 01:59N 34°14' E 135°07'0 0.0
2017-Sep-14 01:29N 34°14' E 135°07'0 0.0
2017-Sep-14 00:59N 34°14' E 135°07'0 0.0
2017-Sep-14 00:29N 34°14' E 135°07'0 0.0
2017-Sep-13 23:59N 34°14' E 135°07'0 0.0
2017-Sep-13 23:29N 34°14' E 135°07'0 0.0
2017-Sep-13 22:56N 34°14' E 135°07'0 0.0
2017-Sep-13 22:29N 34°14' E 135°07'0 0.0
2017-Sep-13 21:59N 34°14' E 135°07'0 0.0
2017-Sep-13 21:29N 34°14' E 135°07'0 0.0
2017-Sep-13 20:59N 34°14' E 135°07'0 0.0
2017-Sep-13 20:29N 34°14' E 135°07'0 0.0
2017-Sep-13 19:59N 34°14' E 135°07'0 0.0
2017-Sep-13 19:29N 34°14' E 135°07'0 0.0
2017-Sep-13 18:53N 34°14' E 135°07'0 0.0
2017-Sep-13 18:29N 34°14' E 135°07'0 0.0
2017-Sep-13 17:56N 34°14' E 135°07'0 0.0
2017-Sep-13 17:29N 34°14' E 135°07'0 0.0
2017-Sep-13 16:59N 34°14' E 135°07'0 0.0
2017-Sep-13 16:29N 34°14' E 135°07'0 0.0
2017-Sep-13 15:59N 34°14' E 135°07'0 0.0
2017-Sep-13 15:29N 34°14' E 135°07'0 0.0
2017-Sep-13 14:59N 34°14' E 135°07'0 0.0
2017-Sep-13 14:29N 34°14' E 135°07'0 0.0
2017-Sep-13 13:59N 34°14' E 135°07'0 0.0
2017-Sep-13 13:29N 34°14' E 135°07'0 0.0
2017-Sep-13 12:59N 34°14' E 135°07'0 0.0
2017-Sep-13 12:29N 34°14' E 135°07'0 0.0
2017-Sep-13 11:59N 34°14' E 135°07'0 0.0
2017-Sep-13 11:29N 34°14' E 135°07'0 0.0
2017-Sep-13 10:59N 34°14' E 135°07'0 0.0
2017-Sep-13 10:29N 34°14' E 135°07'0 0.0
2017-Sep-13 09:59N 34°14' E 135°07'0 0.0
2017-Sep-13 09:29N 34°14' E 135°07'0 0.0
2017-Sep-13 08:56N 34°14' E 135°07'0 0.0
2017-Sep-13 08:29N 34°14' E 135°07'0 0.0
2017-Sep-13 07:59N 34°14' E 135°07'0 0.0
2017-Sep-13 07:29N 34°14' E 135°07'0 0.0
2017-Sep-13 06:56N 34°14' E 135°07'0 0.0
2017-Sep-13 06:29N 34°14' E 135°07'0 0.0
2017-Sep-13 05:59N 34°14' E 135°07'0 0.0
2017-Sep-13 05:23N 34°14' E 135°07'0 0.0
2017-Sep-13 04:59N 34°14' E 135°07'0 0.0
2017-Sep-13 04:26N 34°14' E 135°07'0 0.0
2017-Sep-13 03:56N 34°14' E 135°07'0 0.0
2017-Sep-13 03:29N 34°14' E 135°07'0 0.0
2017-Sep-13 02:59N 34°14' E 135°07'0 0.0
2017-Sep-13 02:26N 34°14' E 135°07'0 0.0
2017-Sep-13 01:53N 34°14' E 135°07'0 0.0
2017-Sep-13 01:29N 34°14' E 135°07'0 0.0
2017-Sep-13 00:59N 34°14' E 135°07'0 0.0
2017-Sep-13 00:29N 34°14' E 135°07'0 0.0
2017-Sep-12 23:53N 34°14' E 135°07'0 0.0
2017-Sep-12 23:29N 34°14' E 135°07'0 0.0
2017-Sep-12 22:59N 34°14' E 135°07'0 0.0
2017-Sep-12 22:29N 34°14' E 135°07'0 0.0
2017-Sep-12 21:59N 34°14' E 135°07'0 0.0
2017-Sep-12 21:29N 34°14' E 135°07'0 0.0
2017-Sep-12 20:59N 34°14' E 135°07'0 0.0
2017-Sep-12 20:29N 34°14' E 135°07'0 0.0
2017-Sep-12 19:59N 34°14' E 135°07'0 0.0
2017-Sep-12 19:29N 34°14' E 135°07'0 0.0
2017-Sep-12 18:59N 34°14' E 135°07'0 0.0
2017-Sep-12 18:29N 34°14' E 135°07'0 0.0
2017-Sep-12 17:56N 34°14' E 135°07'0 0.0
2017-Sep-12 17:11N 34°14' E 135°07'0 0.0
2017-Sep-12 16:59N 34°14' E 135°07'0 0.0
2017-Sep-12 16:29N 34°14' E 135°07'0 0.0
2017-Sep-12 15:59N 34°14' E 135°07'0 0.0
2017-Sep-12 15:29N 34°14' E 135°07'0 0.0
2017-Sep-12 14:56N 34°14' E 135°07'0 0.0
2017-Sep-12 14:20N 34°14' E 135°07'0 0.0
2017-Sep-12 13:59N 34°14' E 135°07'0 0.0
2017-Sep-12 13:29N 34°14' E 135°07'0 0.0
2017-Sep-12 12:59N 34°14' E 135°07'0 0.0
2017-Sep-12 12:29N 34°14' E 135°07'0 0.0
2017-Sep-12 11:59N 34°14' E 135°07'0 0.0
2017-Sep-12 11:26N 34°14' E 135°07'0 0.0
2017-Sep-12 10:59N 34°14' E 135°07'0 0.0
2017-Sep-12 10:29N 34°14' E 135°07'0 0.0
2017-Sep-12 09:59N 34°14' E 135°07'0 0.0
2017-Sep-12 09:29N 34°14' E 135°07'0 0.0
2017-Sep-12 08:59N 34°14' E 135°07'0 0.0
2017-Sep-12 08:29N 34°14' E 135°07'0 0.0
2017-Sep-12 07:59N 34°14' E 135°07'0 0.0
2017-Sep-12 07:29N 34°14' E 135°07'0 0.0
2017-Sep-12 06:59N 34°14' E 135°07'0 0.0
2017-Sep-12 06:29N 34°14' E 135°07'0 0.0
2017-Sep-12 05:59N 34°14' E 135°07'0 0.0
2017-Sep-12 05:29N 34°14' E 135°07'0 0.0
2017-Sep-12 04:59N 34°14' E 135°07'0 0.0
2017-Sep-12 04:23N 34°14' E 135°07'0 0.0
2017-Sep-12 03:59N 34°14' E 135°07'0 0.0
2017-Sep-12 03:29N 34°14' E 135°07'0 0.0
2017-Sep-12 02:59N 34°14' E 135°07'0 0.0
2017-Sep-12 02:29N 34°14' E 135°07'0 0.0
2017-Sep-12 01:53N 34°14' E 135°07'0 0.0
2017-Sep-12 01:26N 34°14' E 135°07'0 0.0
2017-Sep-12 00:59N 34°14' E 135°07'0 0.0
2017-Sep-12 00:29N 34°14' E 135°07'0 0.0
2017-Sep-11 23:53N 34°14' E 135°07'0 0.0
2017-Sep-11 23:29N 34°14' E 135°07'0 0.0
2017-Sep-11 22:59N 34°14' E 135°07'0 0.0
2017-Sep-11 22:29N 34°14' E 135°07'0 0.0
2017-Sep-11 21:59N 34°14' E 135°07'0 0.0
2017-Sep-11 21:29N 34°14' E 135°07'0 0.0
2017-Sep-11 20:59N 34°14' E 135°07'0 0.0
2017-Sep-11 20:29N 34°14' E 135°07'0 0.0
2017-Sep-11 19:59N 34°14' E 135°07'0 0.0
2017-Sep-11 19:29N 34°14' E 135°07'0 0.0
2017-Sep-11 18:59N 34°14' E 135°07'0 0.0
2017-Sep-11 18:29N 34°14' E 135°07'0 0.0
2017-Sep-11 17:59N 34°14' E 135°07'0 0.0
2017-Sep-11 17:23N 34°14' E 135°07'0 0.0
2017-Sep-11 16:41N 34°14' E 135°07'0 0.0
2017-Sep-11 16:29N 34°14' E 135°07'0 0.0
2017-Sep-11 15:59N 34°14' E 135°07'0 0.0
2017-Sep-11 15:29N 34°14' E 135°07'0 0.0
2017-Sep-11 14:59N 34°14' E 135°07'0 0.0
2017-Sep-11 14:29N 34°14' E 135°07'0 0.0
2017-Sep-11 13:53N 34°14' E 135°07'0 0.0
2017-Sep-11 13:23N 34°14' E 135°07'0 0.0
2017-Sep-11 12:59N 34°14' E 135°07'0 0.0
2017-Sep-11 12:29N 34°14' E 135°07'0 0.0
2017-Sep-11 11:59N 34°14' E 135°07'0 0.0
2017-Sep-11 11:23N 34°14' E 135°07'0 0.0
2017-Sep-11 10:59N 34°14' E 135°07'0 0.0
2017-Sep-11 10:29N 34°14' E 135°07'0 0.0
2017-Sep-11 09:53N 34°14' E 135°07'0 0.0
2017-Sep-11 09:29N 34°14' E 135°07'0 0.0
2017-Sep-11 08:59N 34°14' E 135°07'0 0.0
2017-Sep-11 08:29N 34°14' E 135°07'0 0.0
2017-Sep-11 07:59N 34°14' E 135°07'  

Dump ship's entire track history